sensor_id;sensor_type;location;lat;lon;timestamp;temperature;humidity
13328;DHT22;6733;51.044;3.746;2022-09-28T00:00:32;10.50;99.90
13328;DHT22;6733;51.044;3.746;2022-09-28T00:02:58;10.70;99.90
13328;DHT22;6733;51.044;3.746;2022-09-28T00:05:25;10.70;99.90
13328;DHT22;6733;51.044;3.746;2022-09-28T00:07:52;10.80;99.90
13328;DHT22;6733;51.044;3.746;2022-09-28T00:10:19;10.80;99.90
13328;DHT22;6733;51.044;3.746;2022-09-28T00:12:49;10.90;99.90
13328;DHT22;6733;51.044;3.746;2022-09-28T00:15:16;10.90;99.90
13328;DHT22;6733;51.044;3.746;2022-09-28T00:17:42;10.90;99.90
13328;DHT22;6733;51.044;3.746;2022-09-28T00:20:10;10.90;99.90
13328;DHT22;6733;51.044;3.746;2022-09-28T00:22:37;11.00;99.90
13328;DHT22;6733;51.044;3.746;2022-09-28T00:25:05;10.90;99.90
13328;DHT22;6733;51.044;3.746;2022-09-28T00:27:31;11.00;99.90
13328;DHT22;6733;51.044;3.746;2022-09-28T00:29:57;11.00;99.90
13328;DHT22;6733;51.044;3.746;2022-09-28T00:32:24;11.00;99.90
13328;DHT22;6733;51.044;3.746;2022-09-28T00:34:51;11.10;99.90
13328;DHT22;6733;51.044;3.746;2022-09-28T00:37:18;11.00;99.90
13328;DHT22;6733;51.044;3.746;2022-09-28T00:39:45;10.90;99.90
13328;DHT22;6733;51.044;3.746;2022-09-28T00:42:19;11.00;99.90
13328;DHT22;6733;51.044;3.746;2022-09-28T00:44:51;11.00;99.90
13328;DHT22;6733;51.044;3.746;2022-09-28T00:50:17;11.00;99.90
13328;DHT22;6733;51.044;3.746;2022-09-28T00:53:04;11.00;99.90
13328;DHT22;6733;51.044;3.746;2022-09-28T00:55:44;11.00;99.90
13328;DHT22;6733;51.044;3.746;2022-09-28T00:58:16;11.00;99.90
13328;DHT22;6733;51.044;3.746;2022-09-28T01:00:43;11.00;99.90
13328;DHT22;6733;51.044;3.746;2022-09-28T01:03:13;11.10;99.90
13328;DHT22;6733;51.044;3.746;2022-09-28T01:05:40;11.10;99.90
13328;DHT22;6733;51.044;3.746;2022-09-28T01:08:09;11.00;99.90
13328;DHT22;6733;51.044;3.746;2022-09-28T01:10:35;11.00;99.90
13328;DHT22;6733;51.044;3.746;2022-09-28T01:13:01;11.00;99.90
13328;DHT22;6733;51.044;3.746;2022-09-28T01:15:28;11.00;99.90
13328;DHT22;6733;51.044;3.746;2022-09-28T01:18:14;11.10;99.90
13328;DHT22;6733;51.044;3.746;2022-09-28T01:20:53;11.10;99.90
13328;DHT22;6733;51.044;3.746;2022-09-28T01:26:33;11.10;99.90
13328;DHT22;6733;51.044;3.746;2022-09-28T01:29:10;11.10;99.90
13328;DHT22;6733;51.044;3.746;2022-09-28T01:31:40;11.10;99.90
13328;DHT22;6733;51.044;3.746;2022-09-28T01:34:13;11.10;99.90
13328;DHT22;6733;51.044;3.746;2022-09-28T01:36:47;11.00;99.90
13328;DHT22;6733;51.044;3.746;2022-09-28T01:39:44;11.00;99.90
13328;DHT22;6733;51.044;3.746;2022-09-28T01:42:23;11.00;99.90
13328;DHT22;6733;51.044;3.746;2022-09-28T01:44:53;11.00;99.90
13328;DHT22;6733;51.044;3.746;2022-09-28T01:47:20;11.00;99.90
13328;DHT22;6733;51.044;3.746;2022-09-28T01:49:57;11.00;99.90
13328;DHT22;6733;51.044;3.746;2022-09-28T01:52:31;11.10;99.90
13328;DHT22;6733;51.044;3.746;2022-09-28T01:55:06;11.10;99.90
13328;DHT22;6733;51.044;3.746;2022-09-28T01:57:43;11.10;99.90
13328;DHT22;6733;51.044;3.746;2022-09-28T02:00:12;11.10;99.90
13328;DHT22;6733;51.044;3.746;2022-09-28T02:02:47;11.00;99.90
13328;DHT22;6733;51.044;3.746;2022-09-28T02:05:29;10.90;99.90
13328;DHT22;6733;51.044;3.746;2022-09-28T02:10:48;10.70;99.90
13328;DHT22;6733;51.044;3.746;2022-09-28T02:13:20;10.70;99.90
13328;DHT22;6733;51.044;3.746;2022-09-28T02:16:21;10.60;99.90
13328;DHT22;6733;51.044;3.746;2022-09-28T02:18:50;10.50;99.90
13328;DHT22;6733;51.044;3.746;2022-09-28T02:21:24;10.40;99.90
13328;DHT22;6733;51.044;3.746;2022-09-28T02:24:01;10.40;99.90
13328;DHT22;6733;51.044;3.746;2022-09-28T02:26:39;10.50;99.90
13328;DHT22;6733;51.044;3.746;2022-09-28T02:29:07;10.50;99.90
13328;DHT22;6733;51.044;3.746;2022-09-28T02:31:33;10.50;99.90
13328;DHT22;6733;51.044;3.746;2022-09-28T02:34:00;10.60;99.90
13328;DHT22;6733;51.044;3.746;2022-09-28T02:36:33;10.60;99.90
13328;DHT22;6733;51.044;3.746;2022-09-28T02:39:00;10.70;99.90
13328;DHT22;6733;51.044;3.746;2022-09-28T02:44:56;10.80;99.90
13328;DHT22;6733;51.044;3.746;2022-09-28T02:47:57;10.70;99.90
13328;DHT22;6733;51.044;3.746;2022-09-28T02:53:59;10.80;99.90
13328;DHT22;6733;51.044;3.746;2022-09-28T02:59:31;10.80;99.90
13328;DHT22;6733;51.044;3.746;2022-09-28T03:05:08;10.80;99.90
13328;DHT22;6733;51.044;3.746;2022-09-28T03:12:54;10.60;99.90
13328;DHT22;6733;51.044;3.746;2022-09-28T03:15:25;10.50;99.90
13328;DHT22;6733;51.044;3.746;2022-09-28T03:17:51;10.40;99.90
13328;DHT22;6733;51.044;3.746;2022-09-28T03:20:18;10.40;99.90
13328;DHT22;6733;51.044;3.746;2022-09-28T03:22:44;10.40;99.90
13328;DHT22;6733;51.044;3.746;2022-09-28T03:25:11;10.30;99.90
13328;DHT22;6733;51.044;3.746;2022-09-28T03:27:37;10.30;99.90
13328;DHT22;6733;51.044;3.746;2022-09-28T03:30:04;10.20;99.90
13328;DHT22;6733;51.044;3.746;2022-09-28T03:32:30;10.20;99.90
13328;DHT22;6733;51.044;3.746;2022-09-28T03:34:56;10.10;99.90
13328;DHT22;6733;51.044;3.746;2022-09-28T03:37:22;10.10;99.90
13328;DHT22;6733;51.044;3.746;2022-09-28T03:39:49;10.00;99.90
13328;DHT22;6733;51.044;3.746;2022-09-28T03:42:15;9.90;99.90
13328;DHT22;6733;51.044;3.746;2022-09-28T03:44:41;9.90;99.90
13328;DHT22;6733;51.044;3.746;2022-09-28T03:47:07;9.90;99.90
13328;DHT22;6733;51.044;3.746;2022-09-28T03:49:34;9.90;99.90
13328;DHT22;6733;51.044;3.746;2022-09-28T03:52:00;9.80;99.90
13328;DHT22;6733;51.044;3.746;2022-09-28T03:54:27;9.80;99.90
13328;DHT22;6733;51.044;3.746;2022-09-28T03:56:53;9.70;99.90
13328;DHT22;6733;51.044;3.746;2022-09-28T03:59:19;9.70;99.90
13328;DHT22;6733;51.044;3.746;2022-09-28T04:01:48;9.70;99.90
13328;DHT22;6733;51.044;3.746;2022-09-28T04:04:15;9.70;99.90
13328;DHT22;6733;51.044;3.746;2022-09-28T04:06:41;9.70;99.90
13328;DHT22;6733;51.044;3.746;2022-09-28T04:09:07;9.60;99.90
13328;DHT22;6733;51.044;3.746;2022-09-28T04:11:33;9.70;99.90
13328;DHT22;6733;51.044;3.746;2022-09-28T04:14:00;9.60;99.90
13328;DHT22;6733;51.044;3.746;2022-09-28T04:16:26;9.70;99.90
13328;DHT22;6733;51.044;3.746;2022-09-28T04:18:52;9.70;99.90
13328;DHT22;6733;51.044;3.746;2022-09-28T04:21:19;9.70;99.90
13328;DHT22;6733;51.044;3.746;2022-09-28T04:23:46;9.70;99.90
13328;DHT22;6733;51.044;3.746;2022-09-28T04:26:21;9.70;99.90
13328;DHT22;6733;51.044;3.746;2022-09-28T04:28:47;9.60;99.90
13328;DHT22;6733;51.044;3.746;2022-09-28T04:34:14;9.60;99.90
13328;DHT22;6733;51.044;3.746;2022-09-28T04:36:43;9.50;99.90
13328;DHT22;6733;51.044;3.746;2022-09-28T04:39:10;9.50;99.90
13328;DHT22;6733;51.044;3.746;2022-09-28T04:41:37;9.50;99.90
13328;DHT22;6733;51.044;3.746;2022-09-28T04:44:03;9.50;99.90
13328;DHT22;6733;51.044;3.746;2022-09-28T04:46:29;9.40;99.90
13328;DHT22;6733;51.044;3.746;2022-09-28T04:48:55;9.40;99.90
13328;DHT22;6733;51.044;3.746;2022-09-28T04:51:21;9.40;99.90
13328;DHT22;6733;51.044;3.746;2022-09-28T04:53:47;9.30;99.90
13328;DHT22;6733;51.044;3.746;2022-09-28T04:56:15;9.30;99.90
13328;DHT22;6733;51.044;3.746;2022-09-28T05:01:14;9.30;99.90
13328;DHT22;6733;51.044;3.746;2022-09-28T05:03:42;9.20;99.90
13328;DHT22;6733;51.044;3.746;2022-09-28T05:06:11;9.20;99.90
13328;DHT22;6733;51.044;3.746;2022-09-28T05:08:38;9.20;99.90
13328;DHT22;6733;51.044;3.746;2022-09-28T05:11:06;9.20;99.90
13328;DHT22;6733;51.044;3.746;2022-09-28T05:13:37;9.20;99.90
13328;DHT22;6733;51.044;3.746;2022-09-28T05:16:07;9.20;99.90
13328;DHT22;6733;51.044;3.746;2022-09-28T05:18:33;9.20;99.90
13328;DHT22;6733;51.044;3.746;2022-09-28T05:20:59;9.20;99.90
13328;DHT22;6733;51.044;3.746;2022-09-28T05:23:26;9.30;99.90
13328;DHT22;6733;51.044;3.746;2022-09-28T05:25:52;9.40;99.90
13328;DHT22;6733;51.044;3.746;2022-09-28T05:28:25;9.50;99.90
13328;DHT22;6733;51.044;3.746;2022-09-28T05:30:51;9.50;99.90
13328;DHT22;6733;51.044;3.746;2022-09-28T05:33:18;9.40;99.90
13328;DHT22;6733;51.044;3.746;2022-09-28T05:35:44;9.40;99.90
13328;DHT22;6733;51.044;3.746;2022-09-28T05:38:10;9.40;99.90
13328;DHT22;6733;51.044;3.746;2022-09-28T05:40:36;9.40;99.90
13328;DHT22;6733;51.044;3.746;2022-09-28T05:43:02;9.40;99.90
13328;DHT22;6733;51.044;3.746;2022-09-28T05:45:28;9.40;99.90
13328;DHT22;6733;51.044;3.746;2022-09-28T05:47:55;9.30;99.90
13328;DHT22;6733;51.044;3.746;2022-09-28T05:50:21;9.30;99.90
13328;DHT22;6733;51.044;3.746;2022-09-28T05:52:57;9.40;99.90
13328;DHT22;6733;51.044;3.746;2022-09-28T05:55:23;9.40;99.90
13328;DHT22;6733;51.044;3.746;2022-09-28T05:57:49;9.40;99.90
13328;DHT22;6733;51.044;3.746;2022-09-28T06:00:15;9.40;99.90
13328;DHT22;6733;51.044;3.746;2022-09-28T06:02:41;9.40;99.90
13328;DHT22;6733;51.044;3.746;2022-09-28T06:05:08;9.40;99.90
13328;DHT22;6733;51.044;3.746;2022-09-28T06:07:34;9.40;99.90
13328;DHT22;6733;51.044;3.746;2022-09-28T06:10:00;9.50;99.90
13328;DHT22;6733;51.044;3.746;2022-09-28T06:12:26;9.50;99.90
13328;DHT22;6733;51.044;3.746;2022-09-28T06:14:52;9.40;99.90
13328;DHT22;6733;51.044;3.746;2022-09-28T06:17:18;9.40;99.90
13328;DHT22;6733;51.044;3.746;2022-09-28T06:19:44;9.50;99.90
13328;DHT22;6733;51.044;3.746;2022-09-28T06:22:11;9.50;99.90
13328;DHT22;6733;51.044;3.746;2022-09-28T06:24:37;9.50;99.90
13328;DHT22;6733;51.044;3.746;2022-09-28T06:27:03;9.50;99.90
13328;DHT22;6733;51.044;3.746;2022-09-28T06:29:29;9.50;99.90
13328;DHT22;6733;51.044;3.746;2022-09-28T06:31:56;9.50;99.90
13328;DHT22;6733;51.044;3.746;2022-09-28T06:34:22;9.50;99.90
13328;DHT22;6733;51.044;3.746;2022-09-28T06:36:49;9.50;99.90
13328;DHT22;6733;51.044;3.746;2022-09-28T06:39:15;9.60;99.90
13328;DHT22;6733;51.044;3.746;2022-09-28T06:41:41;9.60;99.90
13328;DHT22;6733;51.044;3.746;2022-09-28T06:44:08;9.60;99.90
13328;DHT22;6733;51.044;3.746;2022-09-28T06:46:34;9.60;99.90
13328;DHT22;6733;51.044;3.746;2022-09-28T06:49:03;9.60;99.90
13328;DHT22;6733;51.044;3.746;2022-09-28T06:51:31;9.60;99.90
13328;DHT22;6733;51.044;3.746;2022-09-28T06:53:57;9.60;99.90
13328;DHT22;6733;51.044;3.746;2022-09-28T06:56:23;9.60;99.90
13328;DHT22;6733;51.044;3.746;2022-09-28T06:58:50;9.60;99.90
13328;DHT22;6733;51.044;3.746;2022-09-28T07:01:16;9.70;99.90
13328;DHT22;6733;51.044;3.746;2022-09-28T07:03:42;9.50;99.90
13328;DHT22;6733;51.044;3.746;2022-09-28T07:06:10;9.30;99.90
13328;DHT22;6733;51.044;3.746;2022-09-28T07:08:37;9.20;99.90
13328;DHT22;6733;51.044;3.746;2022-09-28T07:11:06;9.30;99.90
13328;DHT22;6733;51.044;3.746;2022-09-28T07:13:32;9.30;99.90
13328;DHT22;6733;51.044;3.746;2022-09-28T07:15:59;9.20;99.90
13328;DHT22;6733;51.044;3.746;2022-09-28T07:18:26;9.20;99.90
13328;DHT22;6733;51.044;3.746;2022-09-28T07:20:55;9.20;99.90
13328;DHT22;6733;51.044;3.746;2022-09-28T07:23:25;9.20;99.90
13328;DHT22;6733;51.044;3.746;2022-09-28T07:25:57;9.20;99.90
13328;DHT22;6733;51.044;3.746;2022-09-28T07:28:27;9.30;99.90
13328;DHT22;6733;51.044;3.746;2022-09-28T07:30:56;9.40;99.90
13328;DHT22;6733;51.044;3.746;2022-09-28T07:33:22;9.40;99.90
13328;DHT22;6733;51.044;3.746;2022-09-28T07:35:55;9.40;99.90
13328;DHT22;6733;51.044;3.746;2022-09-28T07:38:21;9.40;99.90
13328;DHT22;6733;51.044;3.746;2022-09-28T07:40:47;9.50;99.90
13328;DHT22;6733;51.044;3.746;2022-09-28T07:43:32;9.60;99.90
13328;DHT22;6733;51.044;3.746;2022-09-28T07:45:58;9.70;99.90
13328;DHT22;6733;51.044;3.746;2022-09-28T07:48:24;9.80;99.90
13328;DHT22;6733;51.044;3.746;2022-09-28T07:50:52;9.90;99.90
13328;DHT22;6733;51.044;3.746;2022-09-28T07:53:19;10.00;99.90
13328;DHT22;6733;51.044;3.746;2022-09-28T07:58:16;10.20;99.90
13328;DHT22;6733;51.044;3.746;2022-09-28T08:00:44;10.20;99.90
13328;DHT22;6733;51.044;3.746;2022-09-28T08:03:17;10.40;99.90
13328;DHT22;6733;51.044;3.746;2022-09-28T08:05:44;10.50;99.90
13328;DHT22;6733;51.044;3.746;2022-09-28T08:10:42;10.70;99.90
13328;DHT22;6733;51.044;3.746;2022-09-28T08:13:08;10.80;99.90
13328;DHT22;6733;51.044;3.746;2022-09-28T08:15:34;11.00;99.90
13328;DHT22;6733;51.044;3.746;2022-09-28T08:18:04;11.20;99.90
13328;DHT22;6733;51.044;3.746;2022-09-28T08:20:31;11.50;99.90
13328;DHT22;6733;51.044;3.746;2022-09-28T08:23:16;11.60;99.90
13328;DHT22;6733;51.044;3.746;2022-09-28T08:25:46;11.70;99.90
13328;DHT22;6733;51.044;3.746;2022-09-28T08:28:14;11.70;99.90
13328;DHT22;6733;51.044;3.746;2022-09-28T08:30:44;11.70;99.90
13328;DHT22;6733;51.044;3.746;2022-09-28T08:33:14;11.90;99.90
13328;DHT22;6733;51.044;3.746;2022-09-28T08:35:43;12.00;99.90
13328;DHT22;6733;51.044;3.746;2022-09-28T08:38:10;11.90;99.90
13328;DHT22;6733;51.044;3.746;2022-09-28T08:46:02;11.80;99.90
13328;DHT22;6733;51.044;3.746;2022-09-28T08:48:32;11.90;99.90
13328;DHT22;6733;51.044;3.746;2022-09-28T08:51:16;11.90;99.90
13328;DHT22;6733;51.044;3.746;2022-09-28T08:53:55;11.90;99.90
13328;DHT22;6733;51.044;3.746;2022-09-28T08:56:41;11.70;99.90
13328;DHT22;6733;51.044;3.746;2022-09-28T08:59:18;11.70;99.90
13328;DHT22;6733;51.044;3.746;2022-09-28T09:02:17;11.80;99.90
13328;DHT22;6733;51.044;3.746;2022-09-28T09:04:45;11.80;99.90
13328;DHT22;6733;51.044;3.746;2022-09-28T09:15:16;12.00;99.90
13328;DHT22;6733;51.044;3.746;2022-09-28T09:23:00;12.30;99.90
13328;DHT22;6733;51.044;3.746;2022-09-28T09:25:41;12.50;99.90
13328;DHT22;6733;51.044;3.746;2022-09-28T09:36:02;13.60;99.90
13328;DHT22;6733;51.044;3.746;2022-09-28T09:46:50;14.20;99.90
13328;DHT22;6733;51.044;3.746;2022-09-28T09:49:37;14.50;99.90
13328;DHT22;6733;51.044;3.746;2022-09-28T09:57:46;14.60;99.90
13328;DHT22;6733;51.044;3.746;2022-09-28T10:00:16;15.00;99.90
13328;DHT22;6733;51.044;3.746;2022-09-28T10:02:46;15.30;99.90
13328;DHT22;6733;51.044;3.746;2022-09-28T10:07:50;14.90;99.90
13328;DHT22;6733;51.044;3.746;2022-09-28T10:10:27;14.90;99.90
13328;DHT22;6733;51.044;3.746;2022-09-28T10:12:55;14.90;99.90
13328;DHT22;6733;51.044;3.746;2022-09-28T10:15:29;15.10;99.90
13328;DHT22;6733;51.044;3.746;2022-09-28T10:18:05;15.80;99.90
13328;DHT22;6733;51.044;3.746;2022-09-28T10:20:37;16.30;99.90
13328;DHT22;6733;51.044;3.746;2022-09-28T10:23:07;16.20;99.90
13328;DHT22;6733;51.044;3.746;2022-09-28T10:25:37;15.70;99.90
13328;DHT22;6733;51.044;3.746;2022-09-28T10:28:08;15.30;99.90
13328;DHT22;6733;51.044;3.746;2022-09-28T10:30:37;15.00;99.90
13328;DHT22;6733;51.044;3.746;2022-09-28T10:33:32;15.30;99.90
13328;DHT22;6733;51.044;3.746;2022-09-28T10:36:04;15.60;99.90
13328;DHT22;6733;51.044;3.746;2022-09-28T10:38:32;16.00;99.90
13328;DHT22;6733;51.044;3.746;2022-09-28T10:41:00;16.30;99.90
13328;DHT22;6733;51.044;3.746;2022-09-28T10:43:37;16.90;99.90
13328;DHT22;6733;51.044;3.746;2022-09-28T10:46:10;16.80;99.90
13328;DHT22;6733;51.044;3.746;2022-09-28T10:51:06;16.40;99.90
13328;DHT22;6733;51.044;3.746;2022-09-28T10:53:33;16.60;99.90
13328;DHT22;6733;51.044;3.746;2022-09-28T10:56:19;16.00;99.90
13328;DHT22;6733;51.044;3.746;2022-09-28T10:58:47;16.00;99.90
13328;DHT22;6733;51.044;3.746;2022-09-28T11:01:24;16.00;99.90
13328;DHT22;6733;51.044;3.746;2022-09-28T11:03:56;15.60;99.90
13328;DHT22;6733;51.044;3.746;2022-09-28T11:06:32;15.40;99.90
13328;DHT22;6733;51.044;3.746;2022-09-28T11:09:06;15.50;99.90
13328;DHT22;6733;51.044;3.746;2022-09-28T11:11:56;15.30;99.90
13328;DHT22;6733;51.044;3.746;2022-09-28T11:14:32;15.20;99.90
13328;DHT22;6733;51.044;3.746;2022-09-28T11:19:46;15.30;99.90
13328;DHT22;6733;51.044;3.746;2022-09-28T11:22:19;15.10;99.90
13328;DHT22;6733;51.044;3.746;2022-09-28T11:24:47;15.20;99.90
13328;DHT22;6733;51.044;3.746;2022-09-28T11:27:22;15.70;99.90
13328;DHT22;6733;51.044;3.746;2022-09-28T11:29:54;16.10;99.90
13328;DHT22;6733;51.044;3.746;2022-09-28T11:32:24;15.90;99.90
13328;DHT22;6733;51.044;3.746;2022-09-28T11:34:51;15.80;99.90
13328;DHT22;6733;51.044;3.746;2022-09-28T11:38:26;15.50;99.90
13328;DHT22;6733;51.044;3.746;2022-09-28T11:48:00;16.20;99.90
13328;DHT22;6733;51.044;3.746;2022-09-28T11:58:17;16.80;99.90
13328;DHT22;6733;51.044;3.746;2022-09-28T12:00:53;16.60;99.90
13328;DHT22;6733;51.044;3.746;2022-09-28T12:03:25;17.00;99.90
13328;DHT22;6733;51.044;3.746;2022-09-28T12:06:04;17.20;99.90
13328;DHT22;6733;51.044;3.746;2022-09-28T12:08:35;17.20;99.90
13328;DHT22;6733;51.044;3.746;2022-09-28T12:11:19;17.00;99.90
13328;DHT22;6733;51.044;3.746;2022-09-28T12:13:48;17.10;99.90
13328;DHT22;6733;51.044;3.746;2022-09-28T12:16:43;16.90;99.90
13328;DHT22;6733;51.044;3.746;2022-09-28T12:19:29;15.80;99.90
13328;DHT22;6733;51.044;3.746;2022-09-28T12:22:08;15.70;99.90
13328;DHT22;6733;51.044;3.746;2022-09-28T12:24:41;15.50;99.90
13328;DHT22;6733;51.044;3.746;2022-09-28T12:27:19;15.80;99.90
13328;DHT22;6733;51.044;3.746;2022-09-28T12:29:54;16.30;99.90
13328;DHT22;6733;51.044;3.746;2022-09-28T12:32:45;16.10;99.90
13328;DHT22;6733;51.044;3.746;2022-09-28T12:46:06;15.40;99.90
13328;DHT22;6733;51.044;3.746;2022-09-28T12:48:44;15.60;99.90
13328;DHT22;6733;51.044;3.746;2022-09-28T12:59:28;15.30;99.90
13328;DHT22;6733;51.044;3.746;2022-09-28T13:04:44;15.20;99.90
13328;DHT22;6733;51.044;3.746;2022-09-28T13:13:04;15.60;99.90
13328;DHT22;6733;51.044;3.746;2022-09-28T13:18:29;15.80;99.90
13328;DHT22;6733;51.044;3.746;2022-09-28T13:23:47;16.20;99.90
13328;DHT22;6733;51.044;3.746;2022-09-28T13:26:30;16.10;99.90
13328;DHT22;6733;51.044;3.746;2022-09-28T13:29:04;15.70;99.90
13328;DHT22;6733;51.044;3.746;2022-09-28T13:31:43;15.90;99.90
13328;DHT22;6733;51.044;3.746;2022-09-28T13:34:15;15.80;99.90
13328;DHT22;6733;51.044;3.746;2022-09-28T13:36:45;15.10;99.90
13328;DHT22;6733;51.044;3.746;2022-09-28T13:39:37;14.80;99.90
13328;DHT22;6733;51.044;3.746;2022-09-28T13:48:02;14.70;99.90
13328;DHT22;6733;51.044;3.746;2022-09-28T13:58:47;14.90;99.90
13328;DHT22;6733;51.044;3.746;2022-09-28T14:04:24;14.50;99.90
13328;DHT22;6733;51.044;3.746;2022-09-28T14:07:20;14.60;99.90
13328;DHT22;6733;51.044;3.746;2022-09-28T14:14:59;14.50;99.90
13328;DHT22;6733;51.044;3.746;2022-09-28T14:20:02;14.60;99.90
13328;DHT22;6733;51.044;3.746;2022-09-28T14:22:51;15.60;99.90
13328;DHT22;6733;51.044;3.746;2022-09-28T14:25:26;15.20;99.90
13328;DHT22;6733;51.044;3.746;2022-09-28T14:30:49;17.20;99.90
13328;DHT22;6733;51.044;3.746;2022-09-28T14:38:44;19.10;99.90
13328;DHT22;6733;51.044;3.746;2022-09-28T14:41:34;19.90;99.90
13328;DHT22;6733;51.044;3.746;2022-09-28T14:44:09;20.20;99.90
13328;DHT22;6733;51.044;3.746;2022-09-28T14:46:46;19.80;99.90
13328;DHT22;6733;51.044;3.746;2022-09-28T14:59:40;21.30;99.90
13328;DHT22;6733;51.044;3.746;2022-09-28T15:07:27;20.90;99.90
13328;DHT22;6733;51.044;3.746;2022-09-28T15:09:58;20.40;99.90
13328;DHT22;6733;51.044;3.746;2022-09-28T15:12:27;21.10;99.90
13328;DHT22;6733;51.044;3.746;2022-09-28T15:14:57;21.10;99.90
13328;DHT22;6733;51.044;3.746;2022-09-28T15:17:38;20.90;99.90
13328;DHT22;6733;51.044;3.746;2022-09-28T15:20:26;20.70;99.90
13328;DHT22;6733;51.044;3.746;2022-09-28T15:22:57;21.60;99.90
13328;DHT22;6733;51.044;3.746;2022-09-28T15:25:30;20.40;99.90
13328;DHT22;6733;51.044;3.746;2022-09-28T15:28:01;20.90;99.90
13328;DHT22;6733;51.044;3.746;2022-09-28T15:30:36;21.80;99.10
13328;DHT22;6733;51.044;3.746;2022-09-28T15:33:03;22.80;98.10
13328;DHT22;6733;51.044;3.746;2022-09-28T15:38:35;19.80;99.90
13328;DHT22;6733;51.044;3.746;2022-09-28T15:41:03;21.10;99.90
13328;DHT22;6733;51.044;3.746;2022-09-28T15:43:31;18.20;99.90
13328;DHT22;6733;51.044;3.746;2022-09-28T15:46:11;19.30;99.90
13328;DHT22;6733;51.044;3.746;2022-09-28T15:51:09;19.50;99.90
13328;DHT22;6733;51.044;3.746;2022-09-28T15:54:33;17.40;99.90
13328;DHT22;6733;51.044;3.746;2022-09-28T15:57:01;16.40;99.90
13328;DHT22;6733;51.044;3.746;2022-09-28T15:59:34;15.40;99.90
13328;DHT22;6733;51.044;3.746;2022-09-28T16:02:14;15.30;99.90
13328;DHT22;6733;51.044;3.746;2022-09-28T16:07:23;14.80;99.90
13328;DHT22;6733;51.044;3.746;2022-09-28T16:17:59;14.50;99.90
13328;DHT22;6733;51.044;3.746;2022-09-28T16:20:36;14.40;99.90
13328;DHT22;6733;51.044;3.746;2022-09-28T16:26:06;14.20;99.90
13328;DHT22;6733;51.044;3.746;2022-09-28T16:31:04;14.10;99.90
13328;DHT22;6733;51.044;3.746;2022-09-28T16:36:15;14.00;99.90
13328;DHT22;6733;51.044;3.746;2022-09-28T16:38:45;14.00;99.90
13328;DHT22;6733;51.044;3.746;2022-09-28T16:41:16;13.90;99.90
13328;DHT22;6733;51.044;3.746;2022-09-28T16:43:44;13.80;99.90
13328;DHT22;6733;51.044;3.746;2022-09-28T16:46:13;13.80;99.90
13328;DHT22;6733;51.044;3.746;2022-09-28T16:48:42;13.70;99.90
13328;DHT22;6733;51.044;3.746;2022-09-28T16:51:18;13.70;99.90
13328;DHT22;6733;51.044;3.746;2022-09-28T16:53:45;13.60;99.90
13328;DHT22;6733;51.044;3.746;2022-09-28T16:56:32;13.50;99.90
13328;DHT22;6733;51.044;3.746;2022-09-28T16:58:58;13.40;99.90
13328;DHT22;6733;51.044;3.746;2022-09-28T17:01:24;13.30;99.90
13328;DHT22;6733;51.044;3.746;2022-09-28T17:03:51;13.20;99.90
13328;DHT22;6733;51.044;3.746;2022-09-28T17:06:18;13.20;99.90
13328;DHT22;6733;51.044;3.746;2022-09-28T17:08:45;13.10;99.90
13328;DHT22;6733;51.044;3.746;2022-09-28T17:11:13;13.10;99.90
13328;DHT22;6733;51.044;3.746;2022-09-28T17:13:40;13.00;99.90
13328;DHT22;6733;51.044;3.746;2022-09-28T17:16:18;13.00;99.90
13328;DHT22;6733;51.044;3.746;2022-09-28T17:18:45;12.90;99.90
13328;DHT22;6733;51.044;3.746;2022-09-28T17:21:17;12.90;99.90
13328;DHT22;6733;51.044;3.746;2022-09-28T17:23:48;12.80;99.90
13328;DHT22;6733;51.044;3.746;2022-09-28T17:28:46;12.70;99.90
13328;DHT22;6733;51.044;3.746;2022-09-28T17:31:15;12.70;99.90
13328;DHT22;6733;51.044;3.746;2022-09-28T17:33:42;12.60;99.90
13328;DHT22;6733;51.044;3.746;2022-09-28T17:36:12;12.60;99.90
13328;DHT22;6733;51.044;3.746;2022-09-28T17:38:39;12.50;99.90
13328;DHT22;6733;51.044;3.746;2022-09-28T17:41:18;12.40;99.90
13328;DHT22;6733;51.044;3.746;2022-09-28T17:43:44;12.30;99.90
13328;DHT22;6733;51.044;3.746;2022-09-28T17:46:31;12.10;99.90
13328;DHT22;6733;51.044;3.746;2022-09-28T17:48:59;12.10;99.90
13328;DHT22;6733;51.044;3.746;2022-09-28T17:51:31;12.00;99.90
13328;DHT22;6733;51.044;3.746;2022-09-28T17:53:59;11.90;99.90
13328;DHT22;6733;51.044;3.746;2022-09-28T17:56:27;11.90;99.90
13328;DHT22;6733;51.044;3.746;2022-09-28T17:58:53;12.10;99.90
13328;DHT22;6733;51.044;3.746;2022-09-28T18:01:21;12.00;99.90
13328;DHT22;6733;51.044;3.746;2022-09-28T18:03:47;11.90;99.90
13328;DHT22;6733;51.044;3.746;2022-09-28T18:06:15;11.90;99.90
13328;DHT22;6733;51.044;3.746;2022-09-28T18:08:44;11.90;99.90
13328;DHT22;6733;51.044;3.746;2022-09-28T18:11:11;11.90;99.90
13328;DHT22;6733;51.044;3.746;2022-09-28T18:13:37;11.90;99.90
13328;DHT22;6733;51.044;3.746;2022-09-28T18:16:04;11.80;99.90
13328;DHT22;6733;51.044;3.746;2022-09-28T18:18:31;11.80;99.90
13328;DHT22;6733;51.044;3.746;2022-09-28T18:21:01;11.80;99.90
13328;DHT22;6733;51.044;3.746;2022-09-28T18:23:27;11.80;99.90
13328;DHT22;6733;51.044;3.746;2022-09-28T18:25:53;11.70;99.90
13328;DHT22;6733;51.044;3.746;2022-09-28T18:28:19;11.70;99.90
13328;DHT22;6733;51.044;3.746;2022-09-28T18:30:46;11.70;99.90
13328;DHT22;6733;51.044;3.746;2022-09-28T18:33:13;11.70;99.90
13328;DHT22;6733;51.044;3.746;2022-09-28T18:35:40;11.60;99.90
13328;DHT22;6733;51.044;3.746;2022-09-28T18:38:06;11.60;99.90
13328;DHT22;6733;51.044;3.746;2022-09-28T18:40:33;11.60;99.90
13328;DHT22;6733;51.044;3.746;2022-09-28T18:43:00;11.60;99.90
13328;DHT22;6733;51.044;3.746;2022-09-28T18:45:26;11.50;99.90
13328;DHT22;6733;51.044;3.746;2022-09-28T18:47:52;11.50;99.90
13328;DHT22;6733;51.044;3.746;2022-09-28T18:50:18;11.50;99.90
13328;DHT22;6733;51.044;3.746;2022-09-28T18:52:44;11.40;99.90
13328;DHT22;6733;51.044;3.746;2022-09-28T18:55:12;11.40;99.90
13328;DHT22;6733;51.044;3.746;2022-09-28T18:57:39;11.40;99.90
13328;DHT22;6733;51.044;3.746;2022-09-28T19:00:09;11.40;99.90
13328;DHT22;6733;51.044;3.746;2022-09-28T19:02:36;11.40;99.90
13328;DHT22;6733;51.044;3.746;2022-09-28T19:05:03;11.40;99.90
13328;DHT22;6733;51.044;3.746;2022-09-28T19:07:31;11.40;99.90
13328;DHT22;6733;51.044;3.746;2022-09-28T19:09:57;11.30;99.90
13328;DHT22;6733;51.044;3.746;2022-09-28T19:12:23;11.30;99.90
13328;DHT22;6733;51.044;3.746;2022-09-28T19:14:49;11.30;99.90
13328;DHT22;6733;51.044;3.746;2022-09-28T19:17:16;11.30;99.90
13328;DHT22;6733;51.044;3.746;2022-09-28T19:19:42;11.30;99.90
13328;DHT22;6733;51.044;3.746;2022-09-28T19:22:08;11.30;99.90
13328;DHT22;6733;51.044;3.746;2022-09-28T19:24:36;11.30;99.90
13328;DHT22;6733;51.044;3.746;2022-09-28T19:27:02;11.30;99.90
13328;DHT22;6733;51.044;3.746;2022-09-28T19:29:28;11.30;99.90
13328;DHT22;6733;51.044;3.746;2022-09-28T19:31:54;11.30;99.90
13328;DHT22;6733;51.044;3.746;2022-09-28T19:34:21;11.30;99.90
13328;DHT22;6733;51.044;3.746;2022-09-28T19:36:51;11.30;99.90
13328;DHT22;6733;51.044;3.746;2022-09-28T19:39:17;11.30;99.90
13328;DHT22;6733;51.044;3.746;2022-09-28T19:41:44;11.30;99.90